Time;durP1;ratioP1;P1;durP2;ratioP2;P2;SDS_P1;SDS_P2;PMS_P1;PMS_P2;Temp;Humidity;BMP_temperature;BMP_pressure;BME280_temperature;BME280_humidity;BME280_pressure;Samples;Min_cycle;Max_cycle;Signal;HPM_P1;HPM_P2
2023/01/18 00:00:51;;;;;;;11.82;6.95;;;5.30;99.90;;;;;;5050540;28;20670;-77
2023/01/18 00:03:17;;;;;;;10.57;7.40;;;5.30;99.90;;;;;;5050557;28;20619;-76
2023/01/18 00:05:43;;;;;;;12.30;7.25;;;5.30;99.90;;;;;;5050321;28;20204;-76
2023/01/18 00:08:11;;;;;;;8.10;5.93;;;5.20;99.90;;;;;;5050705;28;20177;-76
2023/01/18 00:10:38;;;;;;;9.18;6.15;;;5.20;99.90;;;;;;5017511;28;20256;-76
2023/01/18 00:13:04;;;;;;;9.52;7.10;;;5.20;99.90;;;;;;5033836;28;20670;-76
2023/01/18 00:15:31;;;;;;;10.57;6.82;;;5.20;99.90;;;;;;5033868;28;20216;-77
2023/01/18 00:18:00;;;;;;;14.18;6.80;;;5.20;99.90;;;;;;5033764;28;20574;-76
2023/01/18 00:20:29;;;;;;;9.68;7.13;;;5.20;99.90;;;;;;5050200;28;20255;-77
2023/01/18 00:23:00;;;;;;;8.60;6.53;;;5.20;99.90;;;;;;5033722;28;20223;-77
2023/01/18 00:25:27;;;;;;;12.43;6.68;;;5.20;99.90;;;;;;5050073;28;20336;-77
2023/01/18 00:27:56;;;;;;;10.48;7.00;;;5.20;99.90;;;;;;5034740;28;20165;-77
2023/01/18 00:30:26;;;;;;;11.40;7.30;;;5.20;99.90;;;;;;5050052;28;20565;-76
2023/01/18 00:32:56;;;;;;;8.32;6.10;;;5.20;99.90;;;;;;5000830;28;20207;-77
2023/01/18 00:35:23;;;;;;;8.55;6.13;;;5.10;99.90;;;;;;5033834;28;20749;-76
2023/01/18 00:37:50;;;;;;;10.90;7.10;;;5.20;99.90;;;;;;4997342;28;20197;-76
2023/01/18 00:40:21;;;;;;;12.27;6.38;;;5.10;99.90;;;;;;5013576;28;20245;-76
2023/01/18 00:45:32;;;;;;;8.60;6.35;;;5.10;99.90;;;;;;5053062;28;20278;-77
2023/01/18 00:47:58;;;;;;;9.63;6.80;;;5.10;99.90;;;;;;5036647;28;20179;-77
2023/01/18 00:50:24;;;;;;;8.90;6.00;;;5.10;99.90;;;;;;5054173;28;20164;-76
2023/01/18 00:52:55;;;;;;;10.15;6.78;;;5.10;99.90;;;;;;5040423;28;20449;-76
2023/01/18 00:55:21;;;;;;;10.77;6.57;;;5.10;99.90;;;;;;5034024;28;20305;-77
2023/01/18 00:57:47;;;;;;;8.30;6.43;;;5.10;99.90;;;;;;5033957;28;20254;-76
2023/01/18 01:00:15;;;;;;;9.90;7.00;;;5.10;99.90;;;;;;5034107;28;20828;-76
2023/01/18 01:02:41;;;;;;;9.02;6.78;;;5.10;99.90;;;;;;5034062;28;20215;-77
2023/01/18 01:08:06;;;;;;;11.30;7.03;;;5.00;99.90;;;;;;5049503;28;20158;-76
2023/01/18 01:10:34;;;;;;;7.40;6.07;;;5.00;99.90;;;;;;5032984;28;20173;-77
2023/01/18 01:26:50;;;;;;;10.50;6.45;;;5.00;99.90;;;;;;5033577;28;20216;-76
2023/01/18 01:29:16;;;;;;;10.18;6.40;;;5.00;99.90;;;;;;5075475;28;20175;-76
2023/01/18 01:31:42;;;;;;;13.88;7.25;;;4.90;99.90;;;;;;5035899;28;20186;-77
2023/01/18 01:34:09;;;;;;;9.13;6.15;;;4.90;99.90;;;;;;5035559;28;20207;-77
2023/01/18 01:36:35;;;;;;;10.52;6.13;;;4.90;99.90;;;;;;5051827;28;20529;-76
2023/01/18 01:39:05;;;;;;;7.60;6.20;;;4.90;99.90;;;;;;5068910;28;20207;-77
2023/01/18 01:41:33;;;;;;;8.50;5.80;;;4.90;99.90;;;;;;5035823;28;20200;-77
2023/01/18 01:44:03;;;;;;;10.38;6.18;;;4.90;99.90;;;;;;5053293;28;20232;-76
2023/01/18 01:46:41;;;;;;;10.88;6.40;;;4.90;99.90;;;;;;5053038;28;20196;-77
2023/01/18 01:49:08;;;;;;;6.78;5.50;;;4.90;99.90;;;;;;5035709;28;20275;-76
2023/01/18 01:51:41;;;;;;;9.52;6.05;;;4.90;99.90;;;;;;5068623;28;20199;-76
2023/01/18 01:54:30;;;;;;;11.02;7.45;;;4.90;99.90;;;;;;5051921;28;20192;-76
2023/01/18 01:57:04;;;;;;;11.20;6.57;;;4.90;99.90;;;;;;5014414;28;20596;-76
2023/01/18 01:59:38;;;;;;;9.63;5.85;;;4.90;99.90;;;;;;5013490;28;20212;-76
2023/01/18 02:02:04;;;;;;;8.43;5.65;;;4.90;99.90;;;;;;5028649;28;20174;-77
2023/01/18 02:04:42;;;;;;;9.50;6.00;;;4.90;99.90;;;;;;5027843;28;20209;-77
2023/01/18 02:07:12;;;;;;;7.60;6.00;;;4.90;99.90;;;;;;5013367;28;20209;-76
2023/01/18 02:09:39;;;;;;;6.45;5.22;;;4.90;99.90;;;;;;5028807;28;20178;-76
2023/01/18 02:12:07;;;;;;;10.48;6.93;;;4.80;99.90;;;;;;5012392;28;20197;-76
2023/01/18 02:14:33;;;;;;;9.20;6.13;;;4.80;99.90;;;;;;5028546;28;20189;-76
2023/01/18 02:17:17;;;;;;;7.38;5.47;;;4.80;99.90;;;;;;5012274;28;20471;-77
2023/01/18 02:20:23;;;;;;;9.45;5.90;;;4.80;99.90;;;;;;5012205;28;20173;-76
2023/01/18 02:23:18;;;;;;;10.00;6.13;;;4.80;99.90;;;;;;5013268;28;20675;-76
2023/01/18 02:26:02;;;;;;;10.15;6.97;;;4.80;99.90;;;;;;5044740;28;20213;-76
2023/01/18 02:28:36;;;;;;;7.30;5.53;;;4.80;99.90;;;;;;5028538;28;20170;-76
2023/01/18 02:31:12;;;;;;;9.80;6.63;;;4.80;99.90;;;;;;5027252;28;20179;-77
2023/01/18 02:33:58;;;;;;;11.70;7.50;;;4.80;99.90;;;;;;5031948;28;20173;-76
2023/01/18 02:36:59;;;;;;;9.70;6.35;;;4.70;99.90;;;;;;5031637;28;20164;-76
2023/01/18 02:40:06;;;;;;;8.48;5.72;;;4.70;99.90;;;;;;5015640;28;20711;-77
2023/01/18 02:48:13;;;;;;;8.63;6.40;;;4.70;99.90;;;;;;5033726;28;20182;-76
2023/01/18 02:50:39;;;;;;;7.20;5.85;;;4.70;99.90;;;;;;5035565;28;20169;-76
2023/01/18 02:53:05;;;;;;;11.73;6.30;;;4.70;99.90;;;;;;5051891;28;20228;-76
2023/01/18 02:55:50;;;;;;;8.07;5.88;;;4.70;99.90;;;;;;5043548;28;20212;-76
2023/01/18 02:58:24;;;;;;;9.02;6.45;;;4.70;99.90;;;;;;5019240;28;20712;-76
2023/01/18 03:00:58;;;;;;;8.45;6.25;;;4.70;99.90;;;;;;5035377;28;20279;-76
2023/01/18 03:03:25;;;;;;;12.57;6.68;;;4.70;99.90;;;;;;5018922;28;20271;-77
2023/01/18 03:05:56;;;;;;;9.23;6.60;;;4.70;99.90;;;;;;5051565;28;20221;-76
2023/01/18 03:08:45;;;;;;;7.70;6.07;;;4.60;99.90;;;;;;5036468;28;20170;-77
2023/01/18 03:11:44;;;;;;;11.77;6.65;;;4.60;99.90;;;;;;5018723;28;20602;-76
2023/01/18 03:14:36;;;;;;;9.38;6.30;;;4.60;99.90;;;;;;5034828;28;21022;-76
2023/01/18 03:17:26;;;;;;;9.18;6.25;;;4.60;99.90;;;;;;5051595;28;20197;-76
2023/01/18 03:20:06;;;;;;;7.75;6.05;;;4.60;99.90;;;;;;5034840;28;20263;-76
2023/01/18 03:25:45;;;;;;;10.13;5.95;;;4.60;99.90;;;;;;5032739;28;20217;-76
2023/01/18 03:34:27;;;;;;;10.13;6.65;;;4.50;99.90;;;;;;5054650;28;20266;-76
2023/01/18 03:36:56;;;;;;;8.70;5.75;;;4.50;99.90;;;;;;5038052;28;20180;-76
2023/01/18 03:39:27;;;;;;;8.73;5.95;;;4.50;99.90;;;;;;5054543;28;20179;-76
2023/01/18 03:42:00;;;;;;;9.00;5.63;;;4.50;99.90;;;;;;5037935;28;20688;-76
2023/01/18 03:44:35;;;;;;;10.55;6.65;;;4.50;99.90;;;;;;5044900;28;20204;-76
2023/01/18 03:47:04;;;;;;;8.60;6.15;;;4.50;99.90;;;;;;5017894;28;20670;-76
2023/01/18 03:49:34;;;;;;;8.80;5.63;;;4.50;99.90;;;;;;5034572;28;20178;-76
2023/01/18 03:52:49;;;;;;;8.60;5.43;;;4.50;99.90;;;;;;5034517;28;20169;-76
2023/01/18 03:55:27;;;;;;;9.05;6.13;;;4.50;99.90;;;;;;5049572;28;20209;-76
2023/01/18 03:58:09;;;;;;;10.35;6.45;;;4.50;99.90;;;;;;5050431;28;20209;-76
2023/01/18 04:00:36;;;;;;;6.80;5.68;;;4.50;99.90;;;;;;5055282;28;20168;-76
2023/01/18 04:03:07;;;;;;;8.55;5.85;;;4.50;99.90;;;;;;5054086;28;20172;-77
2023/01/18 04:05:34;;;;;;;8.68;6.63;;;4.50;99.90;;;;;;5054911;28;20216;-77
2023/01/18 04:08:04;;;;;;;6.90;5.63;;;4.50;99.90;;;;;;5055545;28;20243;-76
2023/01/18 04:10:30;;;;;;;11.50;6.70;;;4.40;99.90;;;;;;5070788;28;20187;-76
2023/01/18 04:12:56;;;;;;;9.30;6.17;;;4.40;99.90;;;;;;5053911;28;20157;-77
2023/01/18 04:15:22;;;;;;;10.93;5.40;;;4.40;99.90;;;;;;5070504;28;20936;-76
2023/01/18 04:17:54;;;;;;;10.93;6.45;;;4.40;99.90;;;;;;5069995;28;20397;-76
2023/01/18 04:20:21;;;;;;;10.10;6.35;;;4.40;99.90;;;;;;5053899;28;20180;-76
2023/01/18 04:22:54;;;;;;;10.00;5.80;;;4.40;99.90;;;;;;5037296;28;20525;-77
2023/01/18 04:25:22;;;;;;;8.82;6.18;;;4.40;99.90;;;;;;5054802;28;20306;-77
2023/01/18 04:27:48;;;;;;;13.35;6.50;;;4.40;99.90;;;;;;5054792;28;20161;-76
2023/01/18 04:30:19;;;;;;;8.52;6.00;;;4.30;99.90;;;;;;5055529;28;20192;-76
2023/01/18 04:32:45;;;;;;;8.10;5.40;;;4.30;99.90;;;;;;5034725;28;20169;-76
2023/01/18 04:35:16;;;;;;;8.85;5.45;;;4.40;99.90;;;;;;5017456;28;20197;-76
2023/01/18 04:37:49;;;;;;;10.45;6.40;;;4.40;99.90;;;;;;5033421;28;20177;-76
2023/01/18 04:40:15;;;;;;;9.63;6.30;;;4.40;99.90;;;;;;5033577;28;20651;-76
2023/01/18 04:42:41;;;;;;;8.77;5.40;;;4.30;99.90;;;;;;5034566;28;20170;-76
2023/01/18 04:45:07;;;;;;;9.37;6.00;;;4.30;99.90;;;;;;5034323;28;20455;-76
2023/01/18 04:47:36;;;;;;;5.90;4.72;;;4.30;99.90;;;;;;5016986;28;21022;-77
2023/01/18 04:50:05;;;;;;;8.07;5.20;;;4.30;99.90;;;;;;5034342;28;20185;-77
2023/01/18 04:52:32;;;;;;;10.30;5.80;;;4.30;99.90;;;;;;5033086;28;20177;-76
2023/01/18 04:54:58;;;;;;;10.18;5.72;;;4.30;99.90;;;;;;5033352;28;20197;-76
2023/01/18 04:57:29;;;;;;;10.35;6.20;;;4.30;99.90;;;;;;5017127;28;20180;-77
2023/01/18 04:59:59;;;;;;;6.72;5.43;;;4.30;99.90;;;;;;5016880;28;20169;-76
2023/01/18 05:02:24;;;;;;;7.10;5.65;;;4.20;99.90;;;;;;5032961;28;20161;-76
2023/01/18 05:04:50;;;;;;;9.43;5.80;;;4.30;99.90;;;;;;5034195;28;20587;-77
2023/01/18 05:07:18;;;;;;;10.70;6.30;;;4.30;99.90;;;;;;5033114;28;20497;-78
2023/01/18 05:09:45;;;;;;;8.63;6.47;;;4.20;99.90;;;;;;5049013;28;20197;-76
2023/01/18 05:12:11;;;;;;;10.10;5.90;;;4.30;99.90;;;;;;5032795;28;20940;-76
2023/01/18 05:14:37;;;;;;;8.77;6.15;;;4.20;99.90;;;;;;5016497;28;20251;-76
2023/01/18 05:17:06;;;;;;;6.70;5.47;;;4.20;99.90;;;;;;5032759;28;20181;-76
2023/01/18 05:19:32;;;;;;;8.23;5.47;;;4.20;99.90;;;;;;5033879;28;21153;-76
2023/01/18 05:22:00;;;;;;;9.07;5.70;;;4.20;99.90;;;;;;5049112;28;20161;-76
2023/01/18 05:24:29;;;;;;;10.47;6.20;;;4.20;99.90;;;;;;5016677;28;20232;-77
2023/01/18 05:26:55;;;;;;;6.90;5.57;;;4.20;99.90;;;;;;5048989;28;20526;-77
2023/01/18 05:29:21;;;;;;;10.95;6.97;;;4.20;99.90;;;;;;5032468;28;20193;-76
2023/01/18 05:31:51;;;;;;;13.15;6.30;;;4.20;99.90;;;;;;5032701;28;20669;-77
2023/01/18 05:34:19;;;;;;;9.68;6.63;;;4.10;99.90;;;;;;5015892;28;20201;-76
2023/01/18 05:36:46;;;;;;;9.50;6.13;;;4.20;99.90;;;;;;5032501;28;20626;-76
2023/01/18 05:39:13;;;;;;;8.82;6.53;;;4.20;99.90;;;;;;5033579;28;20170;-76
2023/01/18 05:41:39;;;;;;;11.23;6.45;;;4.20;99.90;;;;;;5031909;28;20165;-76
2023/01/18 05:44:05;;;;;;;13.20;7.50;;;4.10;99.90;;;;;;5034564;28;20279;-76
2023/01/18 05:46:33;;;;;;;10.35;6.93;;;4.10;99.90;;;;;;5048779;28;20478;-76
2023/01/18 05:49:02;;;;;;;11.65;6.80;;;4.10;99.90;;;;;;5048859;28;20161;-76
2023/01/18 05:51:28;;;;;;;9.93;6.75;;;4.10;99.90;;;;;;5033370;28;20226;-76
2023/01/18 05:53:54;;;;;;;12.43;6.88;;;4.10;99.90;;;;;;5048152;28;20205;-76
2023/01/18 05:56:22;;;;;;;10.90;6.70;;;4.10;99.90;;;;;;5032061;28;20661;-76
2023/01/18 05:58:48;;;;;;;9.77;6.15;;;4.10;99.90;;;;;;5032325;28;20164;-76
2023/01/18 06:01:17;;;;;;;7.70;6.20;;;4.10;99.90;;;;;;5033384;28;20526;-76
2023/01/18 06:03:45;;;;;;;11.40;7.32;;;4.10;99.90;;;;;;5032170;28;20666;-76
2023/01/18 06:06:15;;;;;;;12.55;7.35;;;4.10;99.90;;;;;;5033021;28;20558;-76
2023/01/18 06:08:43;;;;;;;8.70;6.93;;;4.10;99.90;;;;;;4999683;28;20185;-76
2023/01/18 06:11:10;;;;;;;8.98;7.03;;;4.10;99.90;;;;;;5048476;28;20626;-77
2023/01/18 06:13:36;;;;;;;11.18;7.15;;;4.10;99.90;;;;;;5048417;28;20217;-77
2023/01/18 06:16:04;;;;;;;11.07;6.53;;;4.00;99.90;;;;;;5048588;28;20165;-75
2023/01/18 06:18:34;;;;;;;8.60;6.80;;;4.00;99.90;;;;;;5048330;28;20165;-76
2023/01/18 06:21:03;;;;;;;9.25;6.80;;;4.00;99.90;;;;;;5030439;28;20169;-76
2023/01/18 06:23:32;;;;;;;11.18;7.15;;;4.00;99.90;;;;;;5016254;28;20201;-76
2023/01/18 06:25:58;;;;;;;11.23;6.70;;;4.00;99.90;;;;;;5017275;28;20217;-76
2023/01/18 06:28:25;;;;;;;13.25;8.02;;;4.00;99.90;;;;;;5016214;28;20185;-76
2023/01/18 06:30:55;;;;;;;9.85;6.50;;;4.00;99.90;;;;;;5017185;28;20240;-76
2023/01/18 06:33:22;;;;;;;10.50;7.05;;;4.00;99.90;;;;;;5056373;28;20739;-77
2023/01/18 06:35:48;;;;;;;8.13;6.60;;;3.90;99.90;;;;;;5056253;28;20203;-77
2023/01/18 06:38:14;;;;;;;10.80;7.00;;;4.00;99.90;;;;;;5067278;28;20184;-77
2023/01/18 06:40:40;;;;;;;12.27;7.65;;;4.00;99.90;;;;;;5016651;28;20405;-78
2023/01/18 06:43:09;;;;;;;9.48;6.97;;;3.90;99.90;;;;;;5010033;28;20216;-77
2023/01/18 06:45:39;;;;;;;10.13;6.05;;;4.00;99.90;;;;;;5032288;28;20800;-77
2023/01/18 06:48:08;;;;;;;13.65;7.60;;;3.90;99.90;;;;;;5018077;28;20203;-77
2023/01/18 06:50:33;;;;;;;9.35;6.80;;;4.00;99.90;;;;;;5034389;28;20166;-78
2023/01/18 06:52:59;;;;;;;10.37;6.80;;;3.90;99.90;;;;;;5033855;28;20547;-77
2023/01/18 06:55:28;;;;;;;11.77;6.82;;;3.90;99.90;;;;;;5033616;28;20452;-77
2023/01/18 06:57:55;;;;;;;8.67;5.97;;;3.90;99.90;;;;;;5017969;28;20184;-77
2023/01/18 07:00:22;;;;;;;13.52;6.70;;;3.90;99.90;;;;;;5034406;28;20432;-77
2023/01/18 07:02:51;;;;;;;10.57;6.95;;;3.90;99.90;;;;;;5050958;28;20702;-77
2023/01/18 07:05:18;;;;;;;9.32;7.00;;;3.90;99.90;;;;;;5017508;28;20405;-77
2023/01/18 07:07:49;;;;;;;12.95;6.90;;;3.90;99.90;;;;;;5017731;28;20716;-74
2023/01/18 07:10:16;;;;;;;11.57;7.28;;;3.90;99.90;;;;;;5017575;28;20772;-74
2023/01/18 07:12:42;;;;;;;9.52;6.43;;;3.90;99.90;;;;;;5001365;28;20181;-74
2023/01/18 07:15:09;;;;;;;10.65;6.85;;;3.90;99.90;;;;;;5033756;28;20200;-74
2023/01/18 07:17:35;;;;;;;9.85;6.90;;;3.90;99.90;;;;;;5033814;28;20240;-74
2023/01/18 07:20:01;;;;;;;11.02;7.18;;;3.80;99.90;;;;;;5033816;28;20189;-75
2023/01/18 07:22:27;;;;;;;9.50;6.90;;;3.80;99.90;;;;;;5033744;28;20654;-74
2023/01/18 07:24:53;;;;;;;9.70;6.80;;;3.80;99.90;;;;;;5023027;28;20461;-74
2023/01/18 07:27:19;;;;;;;9.13;6.90;;;3.80;99.90;;;;;;5053601;28;20445;-74
2023/01/18 07:29:45;;;;;;;9.73;6.82;;;3.80;99.90;;;;;;5036909;28;20411;-74
2023/01/18 07:32:11;;;;;;;8.17;6.53;;;3.80;99.90;;;;;;5036925;28;20248;-74
2023/01/18 07:34:37;;;;;;;11.13;7.87;;;3.80;99.90;;;;;;5052629;28;20442;-74
2023/01/18 07:37:05;;;;;;;9.45;7.15;;;3.80;99.90;;;;;;5054548;28;20403;-74
2023/01/18 07:39:31;;;;;;;10.80;7.72;;;3.80;99.90;;;;;;5053318;28;20173;-75
2023/01/18 07:41:57;;;;;;;9.27;7.07;;;3.80;99.90;;;;;;5069838;28;20673;-75
2023/01/18 07:44:26;;;;;;;13.07;7.45;;;3.80;99.90;;;;;;5054498;28;20450;-74
2023/01/18 07:46:52;;;;;;;12.73;8.43;;;3.80;99.90;;;;;;5069049;28;20241;-75
2023/01/18 07:49:18;;;;;;;11.23;7.50;;;3.80;99.90;;;;;;5070050;28;20645;-74
2023/01/18 07:51:46;;;;;;;9.45;7.40;;;3.80;99.90;;;;;;5034247;28;20430;-75
2023/01/18 07:54:14;;;;;;;11.90;7.45;;;3.80;99.90;;;;;;5015984;28;20295;-74
2023/01/18 07:56:40;;;;;;;10.27;7.90;;;3.80;99.90;;;;;;4999186;28;20657;-75
2023/01/18 07:59:06;;;;;;;13.70;8.30;;;3.80;99.90;;;;;;5016646;28;20177;-75
2023/01/18 08:01:37;;;;;;;13.18;7.88;;;3.80;99.90;;;;;;5034238;28;20173;-74
2023/01/18 08:04:04;;;;;;;9.25;7.35;;;3.80;99.90;;;;;;5033015;28;20292;-75
2023/01/18 08:06:32;;;;;;;12.23;7.75;;;3.70;99.90;;;;;;5034074;28;20189;-75
2023/01/18 08:08:58;;;;;;;9.77;7.20;;;3.70;99.90;;;;;;5032889;28;20522;-74
2023/01/18 08:11:26;;;;;;;11.52;7.60;;;3.70;99.90;;;;;;5032826;28;20416;-74
2023/01/18 08:13:54;;;;;;;8.83;7.03;;;3.70;99.90;;;;;;5033871;28;20247;-74
2023/01/18 08:16:23;;;;;;;10.95;8.18;;;3.70;99.90;;;;;;5033858;28;20418;-74
2023/01/18 08:18:51;;;;;;;12.57;8.07;;;3.70;99.90;;;;;;5032752;28;20186;-74
2023/01/18 08:21:18;;;;;;;9.60;7.70;;;3.70;99.90;;;;;;5032581;28;20239;-74
2023/01/18 08:23:44;;;;;;;11.13;7.95;;;3.70;99.90;;;;;;5032580;28;20259;-74
2023/01/18 08:26:11;;;;;;;11.30;7.75;;;3.70;99.90;;;;;;5032893;28;20527;-74
2023/01/18 08:28:38;;;;;;;13.60;7.80;;;3.70;99.90;;;;;;5049122;28;20252;-74
2023/01/18 08:31:14;;;;;;;11.20;8.40;;;3.70;99.90;;;;;;5033581;28;20711;-75
2023/01/18 08:33:44;;;;;;;11.30;7.78;;;3.70;99.90;;;;;;5032545;28;20596;-74
2023/01/18 08:36:22;;;;;;;14.05;7.95;;;3.70;99.90;;;;;;5032603;28;20714;-74
2023/01/18 08:38:49;;;;;;;12.80;8.18;;;3.70;99.90;;;;;;5033503;28;20161;-74
2023/01/18 08:41:18;;;;;;;11.95;8.32;;;3.70;99.90;;;;;;5015716;28;20189;-74
2023/01/18 08:43:49;;;;;;;13.98;7.97;;;3.70;99.90;;;;;;5032153;28;20212;-74
2023/01/18 08:46:20;;;;;;;11.27;8.13;;;3.70;99.90;;;;;;5032254;28;20611;-75
2023/01/18 08:48:57;;;;;;;10.77;7.55;;;3.70;99.90;;;;;;4999631;28;20630;-76
2023/01/18 08:51:28;;;;;;;10.30;7.28;;;3.70;99.90;;;;;;5033143;28;20197;-75
2023/01/18 08:53:59;;;;;;;11.35;8.30;;;3.70;99.90;;;;;;5033279;28;20277;-74
2023/01/18 08:56:30;;;;;;;11.10;8.50;;;3.70;99.90;;;;;;5031417;28;20231;-74
2023/01/18 08:58:58;;;;;;;12.85;9.00;;;3.70;99.90;;;;;;5015899;28;20255;-75
2023/01/18 09:01:25;;;;;;;12.68;9.43;;;3.60;99.90;;;;;;5015479;28;20696;-74
2023/01/18 09:03:54;;;;;;;13.63;8.60;;;3.60;99.90;;;;;;5031682;28;20254;-74
2023/01/18 09:06:21;;;;;;;11.82;8.18;;;3.70;99.90;;;;;;5015082;28;20308;-74
2023/01/18 09:08:49;;;;;;;14.57;9.52;;;3.60;99.90;;;;;;5031720;28;20188;-74
2023/01/18 09:11:19;;;;;;;11.73;8.70;;;3.70;99.90;;;;;;5031806;28;20177;-74
2023/01/18 09:13:52;;;;;;;13.20;8.50;;;3.70;99.90;;;;;;4999332;28;20200;-74
2023/01/18 09:16:18;;;;;;;12.60;9.18;;;3.70;99.90;;;;;;5031783;28;20185;-74
2023/01/18 09:18:44;;;;;;;12.70;8.97;;;3.60;99.90;;;;;;5031945;28;20320;-74
2023/01/18 09:21:16;;;;;;;11.55;8.25;;;3.60;99.90;;;;;;5044524;28;21027;-74
2023/01/18 09:23:44;;;;;;;13.20;9.40;;;3.60;99.90;;;;;;5051394;28;20176;-74
2023/01/18 09:26:15;;;;;;;12.23;8.88;;;3.70;99.90;;;;;;5051426;28;20196;-75
2023/01/18 09:28:46;;;;;;;11.00;8.38;;;3.60;99.90;;;;;;5032491;28;20177;-74
2023/01/18 09:31:12;;;;;;;12.45;9.50;;;3.70;99.90;;;;;;5014892;28;20184;-74
2023/01/18 09:33:42;;;;;;;14.50;9.75;;;3.70;99.90;;;;;;5014956;28;20262;-74
2023/01/18 09:36:11;;;;;;;12.88;9.85;;;3.60;99.90;;;;;;5031251;28;20268;-74
2023/01/18 09:38:38;;;;;;;13.35;9.80;;;3.70;99.90;;;;;;5015073;28;20189;-74
2023/01/18 09:41:13;;;;;;;12.85;9.40;;;3.60;99.90;;;;;;5031254;28;20205;-74
2023/01/18 09:43:53;;;;;;;12.02;8.57;;;3.70;99.90;;;;;;5010709;28;20217;-74
2023/01/18 09:46:21;;;;;;;16.60;9.85;;;3.70;99.90;;;;;;5008685;28;20310;-74
2023/01/18 09:48:56;;;;;;;12.88;9.65;;;3.70;99.90;;;;;;5031170;28;20750;-74
2023/01/18 09:51:29;;;;;;;12.98;9.20;;;3.70;99.90;;;;;;5031556;28;20176;-74
2023/01/18 09:53:58;;;;;;;12.57;9.55;;;3.70;99.90;;;;;;5014656;28;20207;-74
2023/01/18 09:56:27;;;;;;;11.55;9.38;;;3.60;99.90;;;;;;5030088;28;20722;-74
2023/01/18 09:59:29;;;;;;;14.50;9.95;;;3.60;99.90;;;;;;5030659;28;20220;-74
2023/01/18 10:02:02;;;;;;;14.00;10.45;;;3.70;99.90;;;;;;5031927;28;20854;-74
2023/01/18 10:04:40;;;;;;;13.63;9.60;;;3.70;99.90;;;;;;5014673;28;20808;-74
2023/01/18 10:07:16;;;;;;;15.82;9.45;;;3.70;99.90;;;;;;5032226;28;20240;-74
2023/01/18 10:09:54;;;;;;;15.73;10.43;;;3.70;99.90;;;;;;5030812;28;20173;-72
2023/01/18 10:12:38;;;;;;;11.00;9.32;;;3.70;99.90;;;;;;5030935;28;20189;-74
2023/01/18 10:15:19;;;;;;;16.23;10.63;;;3.70;99.90;;;;;;5030714;28;20197;-74
2023/01/18 10:17:46;;;;;;;15.52;9.95;;;3.60;99.90;;;;;;5031945;28;20211;-73
2023/01/18 10:20:22;;;;;;;13.68;9.98;;;3.70;99.90;;;;;;5030878;28;20185;-74
2023/01/18 10:23:01;;;;;;;14.90;9.60;;;3.70;99.90;;;;;;5030799;28;20180;-73
2023/01/18 10:25:32;;;;;;;14.82;9.95;;;3.70;99.90;;;;;;5014228;28;20212;-74
2023/01/18 10:28:02;;;;;;;12.75;9.23;;;3.60;99.90;;;;;;5011084;28;20185;-74
2023/01/18 10:30:39;;;;;;;13.48;10.43;;;3.60;99.90;;;;;;4995618;28;20409;-74
2023/01/18 10:33:42;;;;;;;12.40;9.88;;;3.60;99.90;;;;;;5014345;28;20168;-74
2023/01/18 10:36:21;;;;;;;13.07;9.75;;;3.70;99.90;;;;;;5031188;28;20221;-74
2023/01/18 10:38:52;;;;;;;12.85;10.35;;;3.70;99.90;;;;;;5030650;28;20553;-74
2023/01/18 10:41:24;;;;;;;14.02;10.50;;;3.60;99.90;;;;;;5014297;28;20665;-74
2023/01/18 10:43:55;;;;;;;15.35;9.40;;;3.60;99.90;;;;;;5030405;28;20201;-74
2023/01/18 10:46:21;;;;;;;14.55;10.93;;;3.60;99.90;;;;;;5013910;28;20675;-74
2023/01/18 10:48:53;;;;;;;15.55;11.02;;;3.60;99.90;;;;;;5014243;28;20181;-74
2023/01/18 10:51:39;;;;;;;16.52;10.00;;;3.60;99.90;;;;;;5030447;28;20173;-74
2023/01/18 10:54:17;;;;;;;14.27;10.35;;;3.70;99.90;;;;;;5030024;28;20564;-74
2023/01/18 10:56:43;;;;;;;15.95;11.07;;;3.70;99.90;;;;;;5033869;28;20192;-74
2023/01/18 10:59:35;;;;;;;16.83;11.30;;;3.70;99.90;;;;;;5011844;28;20717;-74
2023/01/18 11:02:03;;;;;;;15.02;10.20;;;3.70;99.90;;;;;;5010745;28;20237;-74
2023/01/18 11:04:32;;;;;;;14.23;9.82;;;3.70;99.90;;;;;;5010522;28;20253;-74
2023/01/18 11:07:00;;;;;;;15.82;10.57;;;3.70;99.90;;;;;;5011619;28;20189;-74
2023/01/18 11:09:48;;;;;;;15.13;11.00;;;3.70;99.90;;;;;;5013000;28;20240;-74
2023/01/18 11:12:37;;;;;;;14.65;10.57;;;3.70;99.90;;;;;;4998149;28;20550;-74
2023/01/18 11:15:15;;;;;;;13.38;10.57;;;3.80;99.90;;;;;;5013969;28;20573;-73
2023/01/18 11:17:49;;;;;;;14.38;10.57;;;3.80;99.90;;;;;;4997954;28;20205;-73
2023/01/18 11:20:22;;;;;;;17.48;11.30;;;3.80;99.90;;;;;;4997753;28;20182;-74
2023/01/18 11:23:19;;;;;;;16.05;10.10;;;3.80;99.90;;;;;;5014026;28;20188;-74
2023/01/18 11:25:48;;;;;;;15.60;10.05;;;3.80;99.90;;;;;;5018597;28;20589;-73
2023/01/18 11:28:43;;;;;;;16.35;12.23;;;3.80;99.90;;;;;;5034819;28;20160;-74
2023/01/18 11:31:17;;;;;;;13.50;10.80;;;3.80;99.90;;;;;;5032980;28;20211;-74
2023/01/18 11:34:06;;;;;;;17.33;10.85;;;3.80;99.90;;;;;;5050077;28;20171;-73
2023/01/18 11:36:39;;;;;;;17.35;10.25;;;3.80;99.90;;;;;;5050063;28;20181;-74
2023/01/18 11:39:32;;;;;;;14.40;10.30;;;3.80;99.90;;;;;;5033409;28;20189;-74
2023/01/18 11:42:29;;;;;;;16.17;10.88;;;3.80;99.90;;;;;;5016970;28;20248;-73
2023/01/18 11:45:05;;;;;;;15.23;9.82;;;3.80;99.90;;;;;;5033874;28;20212;-73
2023/01/18 11:47:56;;;;;;;12.38;9.98;;;3.80;99.90;;;;;;5013720;28;20177;-74
2023/01/18 11:50:27;;;;;;;13.07;9.82;;;3.80;99.90;;;;;;5014503;28;20297;-74
2023/01/18 11:53:03;;;;;;;14.23;9.82;;;3.80;99.90;;;;;;5013467;28;20537;-73
2023/01/18 11:55:38;;;;;;;10.52;9.23;;;3.80;99.90;;;;;;5025890;28;20295;-74
2023/01/18 11:58:25;;;;;;;16.33;10.93;;;3.80;99.90;;;;;;5034254;28;20164;-74
2023/01/18 12:01:30;;;;;;;17.52;10.70;;;3.90;99.90;;;;;;5032880;28;20262;-73
2023/01/18 12:04:22;;;;;;;14.80;9.73;;;3.80;99.90;;;;;;5000378;28;20201;-74
2023/01/18 12:06:53;;;;;;;14.68;10.27;;;3.90;99.90;;;;;;5032765;28;20217;-73
2023/01/18 12:09:31;;;;;;;15.98;10.38;;;3.90;99.90;;;;;;5032801;28;20189;-74
2023/01/18 12:12:37;;;;;;;12.52;9.38;;;3.90;99.90;;;;;;5016204;28;20211;-74
2023/01/18 12:15:22;;;;;;;15.32;9.73;;;3.90;99.90;;;;;;4999808;28;20585;-74
2023/01/18 12:18:05;;;;;;;14.25;9.90;;;3.90;99.90;;;;;;5033765;28;20200;-73
2023/01/18 12:21:05;;;;;;;13.73;9.65;;;3.90;99.90;;;;;;5016103;28;20647;-74
2023/01/18 12:23:37;;;;;;;17.50;10.43;;;3.90;99.90;;;;;;5036263;28;20199;-73
2023/01/18 12:26:26;;;;;;;16.50;10.88;;;3.90;99.90;;;;;;5012701;28;20691;-73
2023/01/18 12:29:13;;;;;;;15.85;10.38;;;3.90;99.90;;;;;;4997775;28;20674;-73
2023/01/18 12:31:52;;;;;;;13.98;10.13;;;3.90;99.90;;;;;;5052562;28;20221;-74
2023/01/18 12:34:29;;;;;;;14.75;9.38;;;3.90;99.90;;;;;;5052343;28;20200;-73
2023/01/18 12:37:30;;;;;;;15.70;9.90;;;3.90;99.90;;;;;;5035680;28;20840;-73
2023/01/18 12:40:14;;;;;;;15.93;10.70;;;3.90;99.90;;;;;;5068569;28;20219;-73
2023/01/18 12:42:46;;;;;;;15.80;9.57;;;3.90;99.90;;;;;;5068761;28;20172;-73
2023/01/18 12:45:21;;;;;;;14.50;10.18;;;3.90;99.90;;;;;;5049633;28;20200;-73
2023/01/18 12:47:53;;;;;;;15.15;9.95;;;3.90;99.90;;;;;;5032184;28;20552;-73
2023/01/18 12:50:32;;;;;;;14.27;9.85;;;3.90;99.90;;;;;;5032165;28;20157;-73
2023/01/18 12:53:08;;;;;;;12.98;10.15;;;3.90;99.90;;;;;;5033298;28;20165;-73
2023/01/18 12:55:38;;;;;;;16.77;9.35;;;3.90;99.90;;;;;;5011575;28;20204;-73
2023/01/18 12:58:17;;;;;;;15.23;10.13;;;3.90;99.90;;;;;;5012545;28;20170;-74
2023/01/18 13:00:58;;;;;;;18.50;9.73;;;3.90;99.90;;;;;;5012090;28;20166;-74
2023/01/18 13:03:33;;;;;;;12.65;9.38;;;3.90;99.90;;;;;;5012065;28;20205;-74
2023/01/18 13:06:03;;;;;;;15.63;9.52;;;3.90;99.90;;;;;;5013192;28;20682;-74
2023/01/18 13:08:41;;;;;;;13.98;9.38;;;3.90;99.90;;;;;;5011928;28;20208;-74
2023/01/18 13:11:18;;;;;;;11.32;8.82;;;3.90;99.90;;;;;;4995766;28;20285;-74
2023/01/18 13:13:49;;;;;;;18.55;10.32;;;3.90;99.90;;;;;;5012037;28;20189;-74
2023/01/18 13:16:26;;;;;;;13.50;8.75;;;3.90;99.90;;;;;;5002355;28;20228;-73
2023/01/18 13:19:02;;;;;;;17.88;9.25;;;3.90;99.90;;;;;;5012087;28;20180;-74
2023/01/18 13:21:47;;;;;;;11.55;9.07;;;3.90;99.90;;;;;;5028371;28;20205;-74
2023/01/18 13:24:29;;;;;;;11.55;8.15;;;3.90;99.90;;;;;;5011888;28;20198;-74
2023/01/18 13:27:15;;;;;;;10.80;8.20;;;3.90;99.90;;;;;;5031258;28;20738;-74
2023/01/18 13:29:42;;;;;;;9.60;8.38;;;3.90;99.90;;;;;;5032125;28;20287;-74
2023/01/18 13:32:30;;;;;;;11.65;8.43;;;3.90;99.90;;;;;;5030925;28;20203;-73
2023/01/18 13:35:30;;;;;;;12.85;7.70;;;3.90;99.90;;;;;;5014885;28;20200;-74
2023/01/18 13:38:00;;;;;;;13.82;8.00;;;3.90;99.90;;;;;;5031283;28;20197;-74
2023/01/18 13:40:44;;;;;;;13.75;8.32;;;3.90;99.90;;;;;;5014825;28;20243;-74
2023/01/18 13:43:37;;;;;;;12.88;7.60;;;3.90;99.90;;;;;;5032177;28;20234;-73
2023/01/18 13:46:05;;;;;;;15.38;8.43;;;3.90;99.90;;;;;;5030515;28;20566;-74
2023/01/18 13:48:55;;;;;;;12.43;7.85;;;3.80;99.90;;;;;;5031345;28;20196;-74
2023/01/18 13:51:50;;;;;;;9.68;7.10;;;3.90;99.90;;;;;;5030973;28;20539;-74